createdAt,value
2023-05-22T00:00:02.576Z,529.46
2023-05-22T00:00:13.833Z,529.56
2023-05-22T00:00:25.610Z,529.69
2023-05-22T00:00:37.864Z,529.66
2023-05-22T00:00:48.562Z,529.65
2023-05-22T00:00:59.554Z,529.54
2023-05-22T00:01:10.541Z,529.38
2023-05-22T00:01:21.628Z,529.41
2023-05-22T00:01:33.591Z,529.54
2023-05-22T00:01:45.568Z,529.59
2023-05-22T00:01:56.720Z,529.53
2023-05-22T00:02:07.673Z,529.57
2023-05-22T00:02:18.694Z,529.66
2023-05-22T00:02:30.656Z,529.71
2023-05-22T00:02:41.675Z,529.66
2023-05-22T00:02:53.654Z,529.57
2023-05-22T00:03:05.595Z,529.55
2023-05-22T00:03:16.579Z,529.64
2023-05-22T00:03:27.589Z,529.83
2023-05-22T00:03:38.600Z,529.97
2023-05-22T00:03:49.591Z,529.94
2023-05-22T00:04:01.562Z,529.82
2023-05-22T00:04:12.571Z,529.75
2023-05-22T00:04:23.572Z,529.81
2023-05-22T00:04:34.596Z,529.77
2023-05-22T00:04:46.587Z,529.63
2023-05-22T00:04:57.587Z,529.54
2023-05-22T00:05:08.621Z,529.50
2023-05-22T00:05:19.578Z,529.51
2023-05-22T00:05:30.677Z,529.60
2023-05-22T00:05:41.700Z,529.69
2023-05-22T00:05:53.608Z,529.80
2023-05-22T00:06:05.572Z,529.96
2023-05-22T00:06:16.591Z,530.20
2023-05-22T00:06:27.584Z,530.30
2023-05-22T00:06:39.578Z,530.31
2023-05-22T00:06:51.569Z,530.24
2023-05-22T00:07:02.579Z,530.18
2023-05-22T00:07:13.567Z,530.06
2023-05-22T00:07:24.565Z,529.96
2023-05-22T00:07:35.585Z,529.92
2023-05-22T00:07:47.572Z,529.98
2023-05-22T00:07:58.568Z,530.06
2023-05-22T00:08:09.561Z,530.14
2023-05-22T00:08:20.540Z,530.20
2023-05-22T00:08:31.553Z,530.16
2023-05-22T00:08:42.574Z,530.14
2023-05-22T00:08:53.559Z,530.10
2023-05-22T00:09:04.624Z,530.04
2023-05-22T00:09:16.584Z,530.11
2023-05-22T00:09:28.574Z,530.18
2023-05-22T00:09:39.589Z,530.24
2023-05-22T00:09:51.577Z,530.21
2023-05-22T00:10:02.559Z,530.20
2023-05-22T00:10:13.543Z,530.28
2023-05-22T00:10:24.560Z,530.43
2023-05-22T00:10:35.586Z,530.55
2023-05-22T00:10:46.584Z,530.50
2023-05-22T00:10:57.581Z,530.34
2023-05-22T00:11:08.581Z,530.20
2023-05-22T00:11:19.580Z,530.07
2023-05-22T00:11:30.600Z,530.08
2023-05-22T00:11:42.563Z,530.24
2023-05-22T00:11:53.567Z,530.38
2023-05-22T00:12:04.593Z,530.31
2023-05-22T00:12:16.603Z,530.32
2023-05-22T00:12:28.559Z,530.26
2023-05-22T00:12:39.603Z,530.50
2023-05-22T00:12:50.587Z,530.46
2023-05-22T00:13:02.561Z,530.35
2023-05-22T00:13:13.557Z,530.39
2023-05-22T00:13:24.585Z,530.59
2023-05-22T00:13:35.604Z,530.66
2023-05-22T00:13:47.612Z,530.62
2023-05-22T00:13:59.586Z,530.53
2023-05-22T00:14:11.571Z,530.52
2023-05-22T00:14:22.577Z,530.61
2023-05-22T00:14:33.590Z,530.55
2023-05-22T00:14:44.600Z,530.50
2023-05-22T00:14:55.585Z,530.34
2023-05-22T00:15:07.601Z,530.38
2023-05-22T00:15:19.597Z,530.42
2023-05-22T00:15:30.552Z,530.51
2023-05-22T00:15:41.549Z,530.59
2023-05-22T00:15:52.642Z,530.61
2023-05-22T00:16:04.591Z,530.66
2023-05-22T00:16:15.552Z,530.60
2023-05-22T00:16:26.575Z,530.62
2023-05-22T00:16:37.682Z,530.57
2023-05-22T00:16:48.669Z,530.54
2023-05-22T00:17:00.589Z,530.37
2023-05-22T00:17:12.677Z,530.33
2023-05-22T00:17:23.763Z,530.37
2023-05-22T00:17:35.671Z,530.59
2023-05-22T00:17:46.602Z,530.78
2023-05-22T00:17:58.628Z,530.73
2023-05-22T00:18:10.683Z,530.62
2023-05-22T00:18:21.597Z,530.58
2023-05-22T00:18:33.582Z,530.70
2023-05-22T00:18:44.590Z,530.65
2023-05-22T00:18:55.588Z,530.64
2023-05-22T00:19:07.591Z,530.78
2023-05-22T00:19:19.641Z,530.78
2023-05-22T00:19:31.676Z,530.70
2023-05-22T00:19:43.586Z,530.61
2023-05-22T00:19:55.587Z,530.44
2023-05-22T00:20:06.575Z,530.58
2023-05-22T00:20:17.557Z,530.80
2023-05-22T00:20:28.543Z,530.98
2023-05-22T00:20:39.771Z,531.04
2023-05-22T00:20:50.536Z,531.00
2023-05-22T00:21:01.554Z,530.96
2023-05-22T00:21:12.546Z,530.99
2023-05-22T00:21:23.570Z,530.99
2023-05-22T00:21:34.582Z,531.00
2023-05-22T00:21:45.576Z,531.02
2023-05-22T00:21:56.570Z,530.96
2023-05-22T00:22:07.569Z,530.84
2023-05-22T00:22:18.567Z,530.79
2023-05-22T00:22:29.559Z,530.87
2023-05-22T00:22:41.583Z,530.94
2023-05-22T00:22:52.620Z,531.05
2023-05-22T00:23:03.571Z,531.17
2023-05-22T00:23:15.758Z,531.17
2023-05-22T00:23:25.580Z,531.06
2023-05-22T00:23:36.573Z,530.99
2023-05-22T00:23:47.561Z,530.88
2023-05-22T00:23:58.547Z,530.75
2023-05-22T00:24:09.576Z,530.74
2023-05-22T00:24:21.580Z,530.83
2023-05-22T00:24:32.582Z,530.92
2023-05-22T00:24:44.584Z,530.96
2023-05-22T00:24:55.565Z,531.00
2023-05-22T00:25:06.567Z,530.84
2023-05-22T00:25:17.563Z,530.94
2023-05-22T00:25:28.562Z,530.89
2023-05-22T00:25:39.552Z,530.86
2023-05-22T00:25:50.558Z,530.84
2023-05-22T00:26:01.577Z,530.82
2023-05-22T00:26:12.576Z,530.85
2023-05-22T00:26:23.573Z,530.91
2023-05-22T00:26:35.559Z,530.99
2023-05-22T00:26:46.552Z,530.93
2023-05-22T00:26:57.552Z,530.98
2023-05-22T00:27:08.569Z,531.00
2023-05-22T00:27:19.596Z,530.95
2023-05-22T00:27:30.603Z,530.95
2023-05-22T00:27:42.569Z,530.97
2023-05-22T00:27:53.586Z,531.02
2023-05-22T00:28:05.607Z,531.05
2023-05-22T00:28:17.571Z,531.05
2023-05-22T00:28:28.575Z,531.10
2023-05-22T00:28:39.563Z,531.04
2023-05-22T00:28:50.566Z,531.09
2023-05-22T00:29:01.556Z,531.09
2023-05-22T00:29:12.552Z,531.03
2023-05-22T00:29:23.545Z,531.02
2023-05-22T00:29:34.559Z,531.01
2023-05-22T00:29:45.553Z,531.03
2023-05-22T00:29:56.548Z,531.09
2023-05-22T00:30:07.534Z,531.10
2023-05-22T00:30:18.541Z,531.02
2023-05-22T00:30:29.550Z,530.90
2023-05-22T00:30:40.769Z,530.84
2023-05-22T00:30:51.613Z,530.91
2023-05-22T00:31:03.583Z,531.25
2023-05-22T00:31:14.584Z,531.25
2023-05-22T00:31:25.590Z,531.29
2023-05-22T00:31:37.591Z,531.19
2023-05-22T00:31:49.596Z,531.19
2023-05-22T00:32:01.587Z,531.16
2023-05-22T00:32:13.570Z,531.11
2023-05-22T00:32:24.568Z,531.03
2023-05-22T00:32:35.591Z,531.04
2023-05-22T00:32:47.625Z,531.06
2023-05-22T00:32:59.629Z,531.05
2023-05-22T00:33:11.621Z,531.14
2023-05-22T00:33:23.587Z,531.20
2023-05-22T00:33:35.575Z,531.22
2023-05-22T00:33:46.550Z,531.15
2023-05-22T00:33:57.563Z,531.20
2023-05-22T00:34:08.597Z,531.24
2023-05-22T00:34:19.672Z,531.26
2023-05-22T00:34:31.630Z,531.18
2023-05-22T00:34:42.673Z,531.28
2023-05-22T00:34:53.580Z,531.21
2023-05-22T00:35:04.594Z,531.24
2023-05-22T00:35:15.590Z,531.14
2023-05-22T00:35:27.579Z,531.14
2023-05-22T00:35:38.581Z,531.15
2023-05-22T00:35:49.573Z,531.15
2023-05-22T00:36:00.558Z,531.19
2023-05-22T00:36:11.601Z,531.26
2023-05-22T00:36:23.565Z,531.16
2023-05-22T00:36:34.554Z,531.16
2023-05-22T00:36:45.558Z,531.21
2023-05-22T00:36:56.553Z,531.18
2023-05-22T00:37:07.552Z,531.19
2023-05-22T00:37:18.563Z,531.23
2023-05-22T00:37:29.586Z,531.21
2023-05-22T00:37:41.569Z,531.24
2023-05-22T00:37:52.566Z,531.31
2023-05-22T00:38:03.550Z,531.39
2023-05-22T00:38:14.562Z,531.41
2023-05-22T00:38:25.580Z,531.31
2023-05-22T00:38:36.598Z,531.26
2023-05-22T00:38:48.617Z,531.24
2023-05-22T00:39:00.572Z,531.20
2023-05-22T00:39:11.590Z,531.20
2023-05-22T00:39:23.606Z,531.12
2023-05-22T00:39:35.591Z,530.96
2023-05-22T00:39:46.588Z,530.93
2023-05-22T00:39:58.584Z,531.04
2023-05-22T00:40:09.588Z,530.96
2023-05-22T00:40:20.656Z,530.96
2023-05-22T00:40:32.602Z,531.20
2023-05-22T00:40:44.565Z,531.29
2023-05-22T00:40:55.555Z,531.24
2023-05-22T00:41:06.543Z,531.28
2023-05-22T00:41:17.575Z,531.32
2023-05-22T00:41:28.580Z,531.40
2023-05-22T00:41:39.582Z,531.36
2023-05-22T00:41:51.557Z,531.29
2023-05-22T00:42:02.567Z,531.17
2023-05-22T00:42:13.561Z,531.10
2023-05-22T00:42:24.583Z,531.03
2023-05-22T00:42:35.578Z,531.01
2023-05-22T00:42:46.559Z,530.99
2023-05-22T00:42:57.550Z,531.02
2023-05-22T00:43:08.962Z,531.13
2023-05-22T00:43:19.615Z,531.21
2023-05-22T00:43:31.568Z,531.17
2023-05-22T00:43:42.570Z,531.16
2023-05-22T00:43:53.554Z,531.15
2023-05-22T00:44:04.562Z,531.12
2023-05-22T00:44:15.566Z,531.11
2023-05-22T00:44:26.572Z,531.11
2023-05-22T00:44:37.560Z,531.12
2023-05-22T00:44:48.556Z,531.12
2023-05-22T00:44:59.553Z,531.14
2023-05-22T00:45:10.548Z,531.17
2023-05-22T00:45:21.575Z,531.12
2023-05-22T00:45:32.566Z,531.10
2023-05-22T00:45:43.586Z,531.08
2023-05-22T00:45:54.598Z,531.07
2023-05-22T00:46:06.603Z,531.05
2023-05-22T00:46:18.636Z,531.09
2023-05-22T00:46:30.622Z,531.14
2023-05-22T00:46:41.590Z,531.18
2023-05-22T00:46:52.651Z,531.19
2023-05-22T00:47:03.626Z,531.15
2023-05-22T00:47:14.569Z,531.11
2023-05-22T00:47:25.608Z,531.09
2023-05-22T00:47:36.596Z,531.07
2023-05-22T00:47:47.661Z,531.00
2023-05-22T00:47:58.609Z,530.99
2023-05-22T00:48:10.601Z,530.99
2023-05-22T00:48:21.591Z,531.01
2023-05-22T00:48:32.592Z,531.07
2023-05-22T00:48:44.579Z,530.99
2023-05-22T00:48:55.577Z,531.03
2023-05-22T00:49:06.587Z,531.08
2023-05-22T00:49:18.615Z,531.11
2023-05-22T00:49:30.578Z,531.10
2023-05-22T00:49:41.577Z,531.10
2023-05-22T00:49:53.573Z,531.11
2023-05-22T00:50:04.585Z,531.12
2023-05-22T00:50:15.578Z,531.14
2023-05-22T00:50:26.572Z,531.16
2023-05-22T00:50:37.882Z,531.15
2023-05-22T00:50:48.540Z,531.23
2023-05-22T00:50:59.594Z,531.24
2023-05-22T00:51:10.592Z,531.19
2023-05-22T00:51:22.586Z,531.12
2023-05-22T00:51:33.572Z,531.14
2023-05-22T00:51:44.584Z,531.08
2023-05-22T00:51:55.573Z,531.12
2023-05-22T00:52:06.562Z,531.12
2023-05-22T00:52:17.539Z,531.08
2023-05-22T00:52:28.632Z,531.14
2023-05-22T00:52:40.584Z,531.23
2023-05-22T00:52:52.576Z,531.26
2023-05-22T00:53:03.568Z,531.20
2023-05-22T00:53:14.564Z,531.19
2023-05-22T00:53:25.577Z,531.18
2023-05-22T00:53:36.573Z,531.26
2023-05-22T00:53:47.570Z,531.32
2023-05-22T00:53:58.558Z,531.41
2023-05-22T00:54:09.582Z,531.43
2023-05-22T00:54:20.570Z,531.45
2023-05-22T00:54:31.555Z,531.36
2023-05-22T00:54:42.555Z,531.29
2023-05-22T00:54:53.539Z,531.33
2023-05-22T00:55:04.554Z,531.31
2023-05-22T00:55:15.567Z,531.32
2023-05-22T00:55:26.566Z,531.35
2023-05-22T00:55:37.553Z,531.34
2023-05-22T00:55:48.592Z,531.32
2023-05-22T00:56:00.566Z,531.25
2023-05-22T00:56:11.550Z,531.24
2023-05-22T00:56:22.535Z,531.24
2023-05-22T00:56:33.558Z,531.25
2023-05-22T00:56:44.548Z,531.24
2023-05-22T00:56:55.548Z,531.24
2023-05-22T00:57:06.566Z,531.29
2023-05-22T00:57:17.567Z,531.25
2023-05-22T00:57:28.570Z,531.25
2023-05-22T00:57:39.558Z,531.26
2023-05-22T00:57:50.562Z,531.23
2023-05-22T00:58:01.550Z,531.25
2023-05-22T00:58:12.552Z,531.23
2023-05-22T00:58:23.560Z,531.25
2023-05-22T00:58:34.550Z,531.23
2023-05-22T00:58:45.580Z,531.25
2023-05-22T00:58:56.569Z,531.24
2023-05-22T00:59:07.564Z,531.25
2023-05-22T00:59:18.561Z,531.29
2023-05-22T00:59:29.571Z,531.30
2023-05-22T00:59:40.608Z,531.30
2023-05-22T00:59:52.581Z,531.23
2023-05-22T01:00:03.559Z,531.24
2023-05-22T01:00:14.557Z,531.23
2023-05-22T01:00:25.571Z,531.19
2023-05-22T01:00:36.712Z,531.13
2023-05-22T01:00:47.569Z,531.18
2023-05-22T01:00:58.581Z,531.25
2023-05-22T01:01:09.573Z,531.26
2023-05-22T01:01:20.638Z,531.24
2023-05-22T01:01:31.596Z,531.19
2023-05-22T01:01:42.655Z,531.12
2023-05-22T01:01:54.596Z,531.07
2023-05-22T01:02:05.654Z,531.10
2023-05-22T01:02:16.688Z,531.02
2023-05-22T01:02:28.612Z,531.01
2023-05-22T01:02:40.638Z,531.01
2023-05-22T01:02:51.703Z,531.05
2023-05-22T01:03:03.641Z,531.05
2023-05-22T01:03:15.652Z,531.09
2023-05-22T01:03:27.847Z,531.08
2023-05-22T01:03:38.670Z,531.02
2023-05-22T01:03:50.663Z,530.98
2023-05-22T01:04:02.645Z,531.02
2023-05-22T01:04:13.696Z,531.08
2023-05-22T01:04:25.648Z,531.11
2023-05-22T01:04:37.609Z,531.15
2023-05-22T01:04:49.575Z,531.20
2023-05-22T01:05:00.555Z,531.24
2023-05-22T01:05:11.547Z,531.24
2023-05-22T01:05:22.553Z,531.22
2023-05-22T01:05:33.560Z,531.20
2023-05-22T01:05:44.557Z,531.25
2023-05-22T01:05:55.538Z,531.27
2023-05-22T01:06:06.627Z,531.25
2023-05-22T01:06:18.614Z,531.29
2023-05-22T01:06:29.552Z,531.27
2023-05-22T01:06:40.532Z,531.29
2023-05-22T01:06:51.639Z,531.36
2023-05-22T01:07:03.594Z,531.45
2023-05-22T01:07:14.582Z,531.50
2023-05-22T01:07:25.589Z,531.48
2023-05-22T01:07:37.591Z,531.47
2023-05-22T01:07:49.600Z,531.44
2023-05-22T01:08:00.596Z,531.44
2023-05-22T01:08:12.175Z,531.46
2023-05-22T01:08:23.573Z,531.48
2023-05-22T01:08:34.566Z,531.54
2023-05-22T01:08:45.552Z,531.60
2023-05-22T01:08:56.545Z,531.63
2023-05-22T01:09:07.547Z,531.68
2023-05-22T01:09:18.547Z,531.61
2023-05-22T01:09:29.559Z,531.62
2023-05-22T01:09:40.562Z,531.69
2023-05-22T01:09:51.555Z,531.60
2023-05-22T01:10:02.553Z,531.52
2023-05-22T01:10:13.537Z,531.52
2023-05-22T01:10:24.540Z,531.65
2023-05-22T01:10:35.557Z,531.60
2023-05-22T01:10:46.560Z,531.55
2023-05-22T01:10:57.563Z,531.60
2023-05-22T01:11:08.561Z,531.58
2023-05-22T01:11:19.556Z,531.52
2023-05-22T01:11:30.552Z,531.55
2023-05-22T01:11:41.546Z,531.50
2023-05-22T01:11:52.536Z,531.51
2023-05-22T01:12:03.628Z,531.36
2023-05-22T01:12:15.591Z,531.37
2023-05-22T01:12:26.580Z,531.48
2023-05-22T01:12:38.599Z,531.36
2023-05-22T01:12:50.553Z,531.40
2023-05-22T01:13:01.552Z,531.41
2023-05-22T01:13:12.551Z,531.38
2023-05-22T01:13:23.558Z,531.35
2023-05-22T01:13:34.563Z,531.29
2023-05-22T01:13:45.554Z,531.28
2023-05-22T01:13:56.574Z,531.35
2023-05-22T01:14:07.552Z,531.59
2023-05-22T01:14:18.532Z,531.51
2023-05-22T01:14:29.530Z,531.54
2023-05-22T01:14:40.653Z,531.52
2023-05-22T01:14:52.613Z,531.50
2023-05-22T01:15:04.576Z,531.38
2023-05-22T01:15:15.575Z,531.40
2023-05-22T01:15:26.549Z,531.35
2023-05-22T01:15:37.545Z,531.42
2023-05-22T01:15:48.571Z,531.27
2023-05-22T01:15:59.593Z,531.31
2023-05-22T01:16:11.686Z,531.30
2023-05-22T01:16:23.630Z,531.26
2023-05-22T01:16:34.592Z,531.23
2023-05-22T01:16:46.817Z,531.22
2023-05-22T01:16:57.538Z,531.20
2023-05-22T01:17:08.552Z,531.19
2023-05-22T01:17:19.560Z,531.16
2023-05-22T01:17:30.576Z,531.05
2023-05-22T01:17:41.601Z,531.02
2023-05-22T01:17:53.669Z,531.10
2023-05-22T01:18:05.638Z,531.11
2023-05-22T01:18:16.610Z,531.11
2023-05-22T01:18:28.576Z,531.08
2023-05-22T01:18:39.562Z,531.07
2023-05-22T01:18:50.586Z,531.04
2023-05-22T01:19:02.556Z,531.09
2023-05-22T01:19:13.642Z,531.08
2023-05-22T01:19:24.680Z,531.11
2023-05-22T01:19:35.680Z,531.07
2023-05-22T01:19:46.620Z,531.14
2023-05-22T01:19:58.595Z,531.24
2023-05-22T01:20:10.582Z,531.21
2023-05-22T01:20:21.586Z,531.22
2023-05-22T01:20:32.579Z,531.26
2023-05-22T01:20:45.637Z,531.28
2023-05-22T01:20:56.568Z,531.35
2023-05-22T01:21:07.554Z,531.33
2023-05-22T01:21:18.573Z,531.31
2023-05-22T01:21:29.557Z,531.36
2023-05-22T01:21:40.556Z,531.35
2023-05-22T01:21:51.574Z,531.38
2023-05-22T01:22:02.579Z,531.38
2023-05-22T01:22:14.594Z,531.34
2023-05-22T01:22:26.598Z,531.37
2023-05-22T01:22:37.580Z,531.42
2023-05-22T01:22:49.574Z,531.39
2023-05-22T01:23:00.580Z,531.38
2023-05-22T01:23:11.576Z,531.36
2023-05-22T01:23:22.594Z,531.41
2023-05-22T01:23:34.557Z,531.40
2023-05-22T01:23:45.537Z,531.44
2023-05-22T01:23:56.630Z,531.34
2023-05-22T01:24:08.584Z,531.34
2023-05-22T01:24:20.596Z,531.30
2023-05-22T01:24:32.572Z,531.30
2023-05-22T01:24:43.581Z,531.30
2023-05-22T01:24:54.595Z,531.29
2023-05-22T01:25:06.568Z,531.42
2023-05-22T01:25:17.582Z,531.39
2023-05-22T01:25:28.592Z,531.37
2023-05-22T01:25:39.589Z,531.31
2023-05-22T01:25:51.569Z,531.36
2023-05-22T01:26:02.581Z,531.46
2023-05-22T01:26:14.592Z,531.46
2023-05-22T01:26:26.605Z,531.53
2023-05-22T01:26:38.550Z,531.51
2023-05-22T01:26:49.580Z,531.50
2023-05-22T01:27:00.595Z,531.46
2023-05-22T01:27:12.555Z,531.47
2023-05-22T01:27:23.541Z,531.51
2023-05-22T01:27:34.523Z,531.51
2023-05-22T01:27:45.526Z,531.47
2023-05-22T01:27:56.614Z,531.59
2023-05-22T01:28:08.566Z,531.61
2023-05-22T01:28:19.605Z,531.49
2023-05-22T01:28:31.606Z,531.45
2023-05-22T01:28:43.598Z,531.48
2023-05-22T01:28:55.557Z,531.49
2023-05-22T01:29:06.558Z,531.46
2023-05-22T01:29:17.538Z,531.47
2023-05-22T01:29:28.543Z,531.52
2023-05-22T01:29:39.532Z,531.59
2023-05-22T01:29:50.535Z,531.68
2023-05-22T01:30:01.647Z,531.67
2023-05-22T01:30:13.623Z,531.70
2023-05-22T01:30:25.585Z,531.72
2023-05-22T01:30:37.782Z,531.61
2023-05-22T01:30:48.571Z,531.81
2023-05-22T01:31:00.564Z,531.75
2023-05-22T01:31:11.595Z,531.85
2023-05-22T01:31:22.575Z,531.84
2023-05-22T01:31:34.576Z,531.81
2023-05-22T01:31:45.565Z,531.73
2023-05-22T01:31:56.579Z,531.80
2023-05-22T01:32:08.577Z,531.83
2023-05-22T01:32:20.551Z,531.75
2023-05-22T01:32:31.637Z,531.83
2023-05-22T01:32:43.646Z,531.86
2023-05-22T01:32:54.630Z,531.80
2023-05-22T01:33:05.603Z,531.81
2023-05-22T01:33:16.687Z,531.79
2023-05-22T01:33:28.721Z,531.74
2023-05-22T01:33:40.680Z,531.80
2023-05-22T01:33:52.734Z,531.77
2023-05-22T01:34:03.623Z,531.79
2023-05-22T01:34:15.582Z,531.79
2023-05-22T01:34:26.593Z,531.74
2023-05-22T01:34:37.572Z,531.82
2023-05-22T01:34:48.569Z,531.91
2023-05-22T01:34:59.590Z,531.94
2023-05-22T01:35:11.580Z,531.91
2023-05-22T01:35:22.578Z,531.90
2023-05-22T01:35:34.555Z,531.87
2023-05-22T01:35:45.553Z,531.99
2023-05-22T01:35:56.533Z,532.01
2023-05-22T01:36:07.530Z,531.87
2023-05-22T01:36:18.558Z,531.90
2023-05-22T01:36:29.561Z,532.03
2023-05-22T01:36:40.552Z,532.00
2023-05-22T01:36:51.563Z,532.07
2023-05-22T01:37:02.620Z,532.01
2023-05-22T01:37:14.573Z,532.00
2023-05-22T01:37:25.565Z,532.09
2023-05-22T01:37:36.589Z,532.17
2023-05-22T01:37:47.580Z,532.15
2023-05-22T01:37:59.572Z,532.14
2023-05-22T01:38:10.561Z,532.17
2023-05-22T01:38:21.563Z,532.14
2023-05-22T01:38:32.562Z,532.14
2023-05-22T01:38:43.571Z,532.21
2023-05-22T01:38:54.589Z,532.23
2023-05-22T01:39:06.577Z,532.30
2023-05-22T01:39:17.593Z,532.34
2023-05-22T01:39:29.565Z,532.29
2023-05-22T01:39:40.564Z,532.29
2023-05-22T01:39:51.565Z,532.35
2023-05-22T01:40:02.563Z,532.34
2023-05-22T01:40:13.577Z,532.36
2023-05-22T01:40:24.559Z,532.38
2023-05-22T01:40:35.555Z,532.50
2023-05-22T01:40:46.546Z,532.48
2023-05-22T01:40:57.537Z,532.46
2023-05-22T01:41:08.627Z,532.54
2023-05-22T01:41:20.599Z,532.43
2023-05-22T01:41:32.603Z,532.50
2023-05-22T01:41:43.598Z,532.50
2023-05-22T01:41:55.565Z,532.48
2023-05-22T01:42:06.559Z,532.47
2023-05-22T01:42:17.545Z,532.58
2023-05-22T01:42:28.541Z,532.62
2023-05-22T01:42:39.560Z,532.46
2023-05-22T01:42:50.554Z,532.42
2023-05-22T01:43:01.557Z,532.42
2023-05-22T01:43:12.551Z,532.36
2023-05-22T01:43:23.538Z,532.31
2023-05-22T01:43:34.627Z,532.26
2023-05-22T01:43:58.230Z,532.33
2023-05-22T01:43:59.592Z,532.38
2023-05-22T01:44:10.588Z,532.33
2023-05-22T01:44:21.604Z,532.38
2023-05-22T01:44:33.570Z,532.40
2023-05-22T01:44:44.558Z,532.43
2023-05-22T01:45:07.591Z,532.30
2023-05-22T01:45:19.561Z,532.26
2023-05-22T01:45:30.596Z,532.31
2023-05-22T01:45:42.593Z,532.36
2023-05-22T01:45:54.605Z,532.42
2023-05-22T01:46:05.567Z,532.35
2023-05-22T01:46:17.664Z,532.39
2023-05-22T01:46:28.607Z,532.37
2023-05-22T01:46:40.599Z,532.37
2023-05-22T01:46:51.596Z,532.36
2023-05-22T01:47:03.567Z,532.36
2023-05-22T01:47:14.553Z,532.40
2023-05-22T01:47:25.600Z,532.38
2023-05-22T01:47:37.656Z,532.40
2023-05-22T01:47:48.650Z,532.48
2023-05-22T01:48:06.700Z,532.46
2023-05-22T01:48:11.623Z,532.35
2023-05-22T01:48:23.572Z,532.33
2023-05-22T01:48:34.556Z,532.28
2023-05-22T01:48:45.537Z,532.34
2023-05-22T01:48:56.543Z,532.45
2023-05-22T01:49:07.562Z,532.34
2023-05-22T01:49:18.584Z,532.38
2023-05-22T01:49:30.558Z,532.40
2023-05-22T01:49:41.587Z,532.34
2023-05-22T01:49:52.590Z,532.29
2023-05-22T01:50:03.585Z,532.23
2023-05-22T01:50:15.599Z,532.24
2023-05-22T01:50:26.615Z,532.29
2023-05-22T01:50:38.730Z,532.33
2023-05-22T01:50:50.581Z,532.33
2023-05-22T01:51:01.573Z,532.31
2023-05-22T01:51:12.552Z,532.33
2023-05-22T01:51:23.552Z,532.33
2023-05-22T01:51:34.542Z,532.33
2023-05-22T01:51:45.583Z,532.30
2023-05-22T01:51:56.537Z,532.27
2023-05-22T01:52:07.534Z,532.26
2023-05-22T01:52:18.544Z,532.30
2023-05-22T01:52:29.568Z,532.35
2023-05-22T01:52:40.568Z,532.32
2023-05-22T01:52:51.546Z,532.36
2023-05-22T01:53:02.552Z,532.38
2023-05-22T01:53:13.556Z,532.40
2023-05-22T01:53:24.550Z,532.40
2023-05-22T01:53:35.535Z,532.44
2023-05-22T01:53:46.617Z,532.42
2023-05-22T01:53:58.573Z,532.43
2023-05-22T01:54:09.602Z,532.42
2023-05-22T01:54:20.584Z,532.38
2023-05-22T01:54:32.583Z,532.35
2023-05-22T01:54:43.566Z,532.43
2023-05-22T01:54:54.587Z,532.50
2023-05-22T01:55:06.599Z,532.49
2023-05-22T01:55:17.595Z,532.47
2023-05-22T01:55:29.583Z,532.52
2023-05-22T01:55:40.579Z,532.53
2023-05-22T01:55:52.586Z,532.59
2023-05-22T01:56:04.599Z,532.54
2023-05-22T01:56:15.589Z,532.51
2023-05-22T01:56:27.568Z,532.49
2023-05-22T01:56:38.556Z,532.47
2023-05-22T01:56:49.573Z,532.45
2023-05-22T01:57:00.553Z,532.49
2023-05-22T01:57:11.533Z,532.49
2023-05-22T01:57:22.546Z,532.46
2023-05-22T01:57:33.629Z,532.53
2023-05-22T01:57:45.597Z,532.61
2023-05-22T01:57:56.564Z,532.52
2023-05-22T01:58:07.579Z,532.60
2023-05-22T01:58:18.583Z,532.61
2023-05-22T01:58:30.567Z,532.57
2023-05-22T01:58:41.548Z,532.58
2023-05-22T01:58:52.597Z,532.53
2023-05-22T01:59:04.572Z,532.52
2023-05-22T01:59:15.583Z,532.57
2023-05-22T01:59:27.560Z,532.57
2023-05-22T01:59:38.578Z,532.50
2023-05-22T01:59:49.574Z,532.55
2023-05-22T02:00:00.565Z,532.48
2023-05-22T02:00:11.565Z,532.46
2023-05-22T02:00:22.582Z,532.52
2023-05-22T02:00:34.603Z,532.55
2023-05-22T02:00:46.597Z,532.57
2023-05-22T02:00:58.566Z,532.53
2023-05-22T02:01:09.604Z,532.54
2023-05-22T02:01:21.621Z,532.49
2023-05-22T02:01:33.604Z,532.49
2023-05-22T02:01:45.662Z,532.50
2023-05-22T02:01:57.616Z,532.56
2023-05-22T02:02:09.604Z,532.53
2023-05-22T02:02:21.672Z,532.56
2023-05-22T02:02:33.660Z,532.55
2023-05-22T02:02:45.627Z,532.63
2023-05-22T02:02:56.694Z,532.58
2023-05-22T02:03:07.806Z,532.55
2023-05-22T02:03:19.619Z,532.63
2023-05-22T02:03:30.634Z,532.60
2023-05-22T02:03:42.626Z,532.63
2023-05-22T02:03:53.564Z,532.63
2023-05-22T02:04:04.555Z,532.61
2023-05-22T02:04:15.559Z,532.63
2023-05-22T02:04:26.563Z,532.67
2023-05-22T02:04:37.553Z,532.70
2023-05-22T02:04:48.558Z,532.75
2023-05-22T02:04:59.566Z,532.75
2023-05-22T02:05:10.561Z,532.75
2023-05-22T02:05:21.551Z,532.77
2023-05-22T02:05:32.540Z,532.76
2023-05-22T02:05:43.542Z,532.82
2023-05-22T02:05:54.568Z,532.85
2023-05-22T02:06:05.743Z,532.89
2023-05-22T02:06:16.555Z,532.88
2023-05-22T02:06:27.557Z,532.87
2023-05-22T02:06:38.545Z,532.97
2023-05-22T02:06:49.546Z,532.96
2023-05-22T02:07:00.544Z,532.96
2023-05-22T02:07:12.341Z,533.05
2023-05-22T02:07:22.597Z,533.08
2023-05-22T02:07:34.567Z,532.95
2023-05-22T02:07:45.562Z,532.89
2023-05-22T02:07:56.546Z,532.97
2023-05-22T02:08:07.532Z,533.00
2023-05-22T02:08:18.540Z,533.05
2023-05-22T02:08:29.532Z,533.02
2023-05-22T02:08:40.567Z,532.97
2023-05-22T02:08:51.550Z,532.97
2023-05-22T02:09:02.538Z,532.94
2023-05-22T02:09:13.614Z,532.99
2023-05-22T02:09:25.574Z,532.98
2023-05-22T02:09:36.570Z,532.95
2023-05-22T02:09:47.570Z,532.97
2023-05-22T02:09:58.569Z,533.02
2023-05-22T02:10:09.582Z,533.07
2023-05-22T02:10:20.601Z,533.03
2023-05-22T02:10:31.609Z,532.96
2023-05-22T02:10:43.584Z,532.95
2023-05-22T02:10:55.656Z,533.03
2023-05-22T02:11:07.617Z,533.03
2023-05-22T02:11:19.614Z,532.97
2023-05-22T02:11:31.571Z,533.01
2023-05-22T02:11:43.592Z,533.00
2023-05-22T02:11:54.602Z,533.02
2023-05-22T02:12:06.560Z,532.99
2023-05-22T02:12:17.542Z,532.99
2023-05-22T02:12:28.634Z,533.00
2023-05-22T02:12:40.580Z,533.03
2023-05-22T02:12:52.626Z,533.04
2023-05-22T02:13:04.603Z,533.05
2023-05-22T02:13:16.568Z,533.02
2023-05-22T02:13:27.566Z,533.06
2023-05-22T02:13:38.554Z,533.09
2023-05-22T02:13:49.556Z,533.10
2023-05-22T02:14:00.554Z,533.10
2023-05-22T02:14:12.591Z,533.06
2023-05-22T02:14:23.595Z,533.10
2023-05-22T02:14:34.580Z,533.13
2023-05-22T02:14:46.567Z,533.12
2023-05-22T02:14:57.566Z,533.17
2023-05-22T02:15:08.634Z,533.20
2023-05-22T02:15:20.590Z,533.20
2023-05-22T02:15:31.616Z,533.27
2023-05-22T02:15:42.612Z,533.34
2023-05-22T02:15:54.660Z,533.34
2023-05-22T02:16:05.612Z,533.36
2023-05-22T02:16:17.818Z,533.39
2023-05-22T02:16:28.600Z,533.38
2023-05-22T02:16:40.594Z,533.42
2023-05-22T02:16:52.568Z,533.46
2023-05-22T02:17:03.570Z,533.55
2023-05-22T02:17:14.575Z,533.60
2023-05-22T02:17:25.557Z,533.55
2023-05-22T02:17:36.646Z,533.57
2023-05-22T02:17:47.612Z,533.61
2023-05-22T02:17:59.645Z,533.62
2023-05-22T02:18:10.586Z,533.66
2023-05-22T02:18:21.581Z,533.66
2023-05-22T02:18:33.624Z,533.65
2023-05-22T02:18:45.656Z,533.68
2023-05-22T02:18:56.616Z,533.74
2023-05-22T02:19:08.625Z,533.81
2023-05-22T02:19:20.661Z,533.84
2023-05-22T02:19:31.658Z,533.84
2023-05-22T02:19:43.568Z,533.83
2023-05-22T02:19:54.558Z,533.84
2023-05-22T02:20:05.549Z,533.80
2023-05-22T02:20:16.568Z,533.86
2023-05-22T02:20:27.565Z,533.88
2023-05-22T02:20:38.819Z,533.95
2023-05-22T02:20:49.627Z,533.97
2023-05-22T02:21:01.593Z,533.95